Moku Pahu — WBWK — position and weather

sailwx.info

Track history (hours):
 
Tides and Currents Weather Stations Pressure Air Temp Water Temp Dewpoint Dewpoint Depression Visibility Wind Speed Wind Dir Waves Ship Positions

Moku Pahu

Owner: American Ship Management, LLC., Concord, CA. More information available from US FCC via Universal Licensing System and Coast Guard Vessel Documentation Center.

Last reported at 2017-Mar-17 10:33 UTC. Time now 2017-Apr-24 20:58 UTC.
Position N 01°54' E 102°22'.
Warning: this ship's position is 38 days out of date.

Type: Ship. MMSI: 366857000.

Date/timePositionNaut miles runAvg speedWind from/ knotsBaromVisibWave heightAir tempDewpointWater temp
2017-Mar-17 10:33N 01°54' E 102°22'1614.1
2017-Mar-17 09:27N 01°48' E 102°36'6312.8
2017-Mar-17 04:30N 01°14' E 103°29'1212.5
2017-Mar-17 03:33N 01°11' E 103°41'9 8.9
2017-Mar-17 02:34N 01°13' E 103°49'0 0.2
2017-Mar-17 01:33N 01°13' E 103°49'0 0.1
2017-Mar-17 00:33N 01°13' E 103°49'0 0.1
2017-Mar-16 23:33N 01°13' E 103°49'0 0.1
2017-Mar-16 22:33N 01°13' E 103°49'1 1.4
2017-Mar-16 21:33N 01°13' E 103°48'2 2.3
2017-Mar-16 20:28N 01°15' E 103°48'0 0.0
2017-Mar-16 19:32N 01°15' E 103°48'0 0.1
2017-Mar-16 18:32N 01°15' E 103°48'0 0.1
2017-Mar-16 17:33N 01°15' E 103°48'0 0.0
2017-Mar-16 16:31N 01°15' E 103°48'0 0.0
2017-Mar-16 15:31N 01°15' E 103°48'0 0.0
2017-Mar-16 14:26N 01°15' E 103°48'0 0.0
2017-Mar-16 13:32N 01°15' E 103°48'0 0.0
2017-Mar-16 12:33N 01°15' E 103°48'0 0.0
2017-Mar-16 11:33N 01°15' E 103°48'0 0.0
2017-Mar-16 10:31N 01°15' E 103°48'0 0.0
2017-Mar-16 09:31N 01°15' E 103°48'0 0.0
2017-Mar-16 08:29N 01°15' E 103°48'0 0.0
2017-Mar-16 07:32N 01°15' E 103°48'0 0.0
2017-Mar-16 05:33N 01°15' E 103°48'0 0.0
2017-Mar-16 04:30N 01°15' E 103°48'0 0.0
2017-Mar-16 03:10N 01°15' E 103°48'0 0.0
2017-Mar-16 02:29N 01°15' E 103°48'0 0.0
2017-Mar-16 01:28N 01°15' E 103°48'0 0.2
2017-Mar-16 00:19N 01°15' E 103°48'0 0.0
2017-Mar-15 23:29N 01°15' E 103°48'0 0.1
2017-Mar-15 22:31N 01°15' E 103°48'0 0.0
2017-Mar-15 21:31N 01°15' E 103°48'0 0.0
2017-Mar-15 20:26N 01°15' E 103°48'0 0.0
2017-Mar-15 19:32N 01°15' E 103°48'0 0.1
2017-Mar-15 18:33N 01°15' E 103°48'0 0.1
2017-Mar-15 17:28N 01°15' E 103°48'0 0.0
2017-Mar-15 16:28N 01°15' E 103°48'0 0.0
2017-Mar-15 15:08N 01°15' E 103°48'1 2.0
2017-Mar-15 14:33N 01°15' E 103°47'3 1.8
2017-Mar-15 13:05N 01°13' E 103°49'0 0.0
2017-Mar-15 12:32N 01°13' E 103°49'0 0.2
2017-Mar-15 11:33N 01°13' E 103°49'3 3.4
2017-Mar-15 10:33N 01°13' E 103°53'6 5.9
2017-Mar-15 09:33N 01°15' E 103°58'7 6.8
2017-Mar-15 08:32N 01°17' E 104°05'  
Track history (hours):
 
Tides and Currents Weather Stations Pressure Air Temp Water Temp Dewpoint Dewpoint Depression Visibility Wind Speed Wind Dir Waves Ship Positions

Moku Pahu

Owner: American Ship Management, LLC., Concord, CA. More information available from US FCC via Universal Licensing System and Coast Guard Vessel Documentation Center.

Last reported at 2017-Mar-17 10:33 UTC. Time now 2017-Apr-24 20:58 UTC.
Position N 01°54' E 102°22'.
Warning: this ship's position is 38 days out of date.

Type: Ship. MMSI: 366857000.

Date/timePositionNaut miles runAvg speedWind from/ knotsBaromVisibWave heightAir tempDewpointWater temp
2017-Mar-17 10:33N 01°54' E 102°22'1614.1
2017-Mar-17 09:27N 01°48' E 102°36'6312.8
2017-Mar-17 04:30N 01°14' E 103°29'1212.5
2017-Mar-17 03:33N 01°11' E 103°41'9 8.9
2017-Mar-17 02:34N 01°13' E 103°49'0 0.2
2017-Mar-17 01:33N 01°13' E 103°49'0 0.1
2017-Mar-17 00:33N 01°13' E 103°49'0 0.1
2017-Mar-16 23:33N 01°13' E 103°49'0 0.1
2017-Mar-16 22:33N 01°13' E 103°49'1 1.4
2017-Mar-16 21:33N 01°13' E 103°48'2 2.3
2017-Mar-16 20:28N 01°15' E 103°48'0 0.0
2017-Mar-16 19:32N 01°15' E 103°48'0 0.1
2017-Mar-16 18:32N 01°15' E 103°48'0 0.1
2017-Mar-16 17:33N 01°15' E 103°48'0 0.0
2017-Mar-16 16:31N 01°15' E 103°48'0 0.0
2017-Mar-16 15:31N 01°15' E 103°48'0 0.0
2017-Mar-16 14:26N 01°15' E 103°48'0 0.0
2017-Mar-16 13:32N 01°15' E 103°48'0 0.0
2017-Mar-16 12:33N 01°15' E 103°48'0 0.0
2017-Mar-16 11:33N 01°15' E 103°48'0 0.0
2017-Mar-16 10:31N 01°15' E 103°48'0 0.0
2017-Mar-16 09:31N 01°15' E 103°48'0 0.0
2017-Mar-16 08:29N 01°15' E 103°48'0 0.0
2017-Mar-16 07:32N 01°15' E 103°48'0 0.0
2017-Mar-16 05:33N 01°15' E 103°48'0 0.0
2017-Mar-16 04:30N 01°15' E 103°48'0 0.0
2017-Mar-16 03:10N 01°15' E 103°48'0 0.0
2017-Mar-16 02:29N 01°15' E 103°48'0 0.0
2017-Mar-16 01:28N 01°15' E 103°48'0 0.2
2017-Mar-16 00:19N 01°15' E 103°48'0 0.0
2017-Mar-15 23:29N 01°15' E 103°48'0 0.1
2017-Mar-15 22:31N 01°15' E 103°48'0 0.0
2017-Mar-15 21:31N 01°15' E 103°48'0 0.0
2017-Mar-15 20:26N 01°15' E 103°48'0 0.0
2017-Mar-15 19:32N 01°15' E 103°48'0 0.1
2017-Mar-15 18:33N 01°15' E 103°48'0 0.1
2017-Mar-15 17:28N 01°15' E 103°48'0 0.0
2017-Mar-15 16:28N 01°15' E 103°48'0 0.0
2017-Mar-15 15:08N 01°15' E 103°48'1 2.0
2017-Mar-15 14:33N 01°15' E 103°47'3 1.8
2017-Mar-15 13:05N 01°13' E 103°49'0 0.0
2017-Mar-15 12:32N 01°13' E 103°49'0 0.2
2017-Mar-15 11:33N 01°13' E 103°49'3 3.4
2017-Mar-15 10:33N 01°13' E 103°53'6 5.9
2017-Mar-15 09:33N 01°15' E 103°58'7 6.8
2017-Mar-15 08:32N 01°17' E 104°05'  

Dump ship's entire track history